createdAt,value
2023-05-19T00:02:12.249Z,2.80
2023-05-19T00:04:47.362Z,2.92
2023-05-19T00:07:21.004Z,2.88
2023-05-19T00:09:56.157Z,2.85
2023-05-19T00:12:29.544Z,3.13
2023-05-19T00:15:03.183Z,2.67
2023-05-19T00:17:38.445Z,2.72
2023-05-19T00:20:12.981Z,3.08
2023-05-19T00:22:46.216Z,2.85
2023-05-19T00:25:20.830Z,2.88
2023-05-19T00:27:54.059Z,3.22
2023-05-19T00:30:27.383Z,3.28
2023-05-19T00:33:00.736Z,2.65
2023-05-19T00:35:34.221Z,2.58
2023-05-19T00:38:07.760Z,2.95
2023-05-19T00:40:42.413Z,3.25
2023-05-19T00:43:15.679Z,2.97
2023-05-19T00:45:49.239Z,2.40
2023-05-19T00:48:22.811Z,2.97
2023-05-19T00:51:02.083Z,3.45
2023-05-19T00:53:36.551Z,2.63
2023-05-19T00:56:11.257Z,3.20
2023-05-19T00:58:45.359Z,2.92
2023-05-19T01:01:21.453Z,2.55
2023-05-19T01:03:56.729Z,2.83
2023-05-19T01:06:30.348Z,2.80
2023-05-19T01:09:03.873Z,2.15
2023-05-19T01:11:38.487Z,2.88
2023-05-19T01:14:11.822Z,2.78
2023-05-19T01:16:51.710Z,2.88
2023-05-19T01:19:42.212Z,3.10
2023-05-19T01:22:34.259Z,2.63
2023-05-19T01:25:38.112Z,2.60
2023-05-19T01:28:27.597Z,2.97
2023-05-19T01:31:04.697Z,2.95
2023-05-19T01:33:41.051Z,2.50
2023-05-19T01:36:16.389Z,2.60
2023-05-19T01:38:53.186Z,2.47
2023-05-19T01:41:28.478Z,3.33
2023-05-19T01:44:02.084Z,2.58
2023-05-19T01:46:37.590Z,2.38
2023-05-19T01:49:10.991Z,4.25
2023-05-19T01:51:44.535Z,2.42
2023-05-19T01:54:17.845Z,1.98
2023-05-19T01:56:58.472Z,2.10
2023-05-19T01:59:43.316Z,2.50
2023-05-19T02:02:26.928Z,2.25
2023-05-19T02:05:09.940Z,2.55
2023-05-19T02:07:47.805Z,2.72
2023-05-19T02:10:27.546Z,2.35
2023-05-19T02:13:08.627Z,2.53
2023-05-19T02:15:43.826Z,2.50
2023-05-19T02:18:20.375Z,2.95
2023-05-19T02:20:57.334Z,2.47
2023-05-19T02:23:30.904Z,2.72
2023-05-19T02:26:04.248Z,2.00
2023-05-19T02:28:39.633Z,2.28
2023-05-19T02:31:12.972Z,2.85
2023-05-19T02:33:47.605Z,2.80
2023-05-19T02:36:20.867Z,2.83
2023-05-19T02:38:54.185Z,2.25
2023-05-19T02:41:27.622Z,2.67
2023-05-19T02:44:01.038Z,2.20
2023-05-19T02:46:34.602Z,2.70
2023-05-19T02:49:09.396Z,2.40
2023-05-19T02:51:42.690Z,2.40
2023-05-19T02:54:16.209Z,2.20
2023-05-19T02:56:49.500Z,2.85
2023-05-19T02:59:25.033Z,2.65
2023-05-19T03:02:01.669Z,2.40
2023-05-19T03:04:41.698Z,1.90
2023-05-19T03:07:15.667Z,2.55
2023-05-19T03:12:22.319Z,2.28
2023-05-19T03:14:55.611Z,2.22
2023-05-19T03:17:33.709Z,2.30
2023-05-19T03:20:10.859Z,2.55
2023-05-19T03:22:44.229Z,2.40
2023-05-19T03:25:18.063Z,2.42
2023-05-19T03:27:51.357Z,2.30
2023-05-19T03:30:24.598Z,3.08
2023-05-19T03:33:16.107Z,2.53
2023-05-19T03:38:24.419Z,2.22
2023-05-19T03:41:03.228Z,2.85
2023-05-19T03:43:37.703Z,2.13
2023-05-19T03:46:13.330Z,2.55
2023-05-19T03:49:03.341Z,2.33
2023-05-19T03:52:04.073Z,2.10
2023-05-19T03:54:52.990Z,2.10
2023-05-19T03:57:26.990Z,2.20
2023-05-19T04:00:00.758Z,2.30
2023-05-19T04:02:34.170Z,2.45
2023-05-19T04:05:07.903Z,2.28
2023-05-19T04:07:43.073Z,2.15
2023-05-19T04:10:16.328Z,2.20
2023-05-19T04:12:49.734Z,2.30
2023-05-19T04:15:22.999Z,2.30
2023-05-19T04:17:57.489Z,1.85
2023-05-19T04:23:05.866Z,2.30
2023-05-19T04:25:40.857Z,2.30
2023-05-19T04:28:14.745Z,2.10
2023-05-19T04:30:48.097Z,2.15
2023-05-19T04:33:21.497Z,2.20
2023-05-19T04:35:54.781Z,2.30
2023-05-19T04:38:30.032Z,1.90
2023-05-19T04:41:04.121Z,2.40
2023-05-19T04:43:42.005Z,2.63
2023-05-19T04:46:15.807Z,2.28
2023-05-19T04:48:51.272Z,2.30
2023-05-19T04:51:29.250Z,1.80
2023-05-19T04:54:07.415Z,2.13
2023-05-19T04:56:42.079Z,2.15
2023-05-19T04:59:15.511Z,2.42
2023-05-19T05:01:48.878Z,2.53
2023-05-19T05:04:24.140Z,2.30
2023-05-19T05:06:57.541Z,2.45
2023-05-19T05:09:33.041Z,2.05
2023-05-19T05:12:09.257Z,2.53
2023-05-19T05:14:45.293Z,2.05
2023-05-19T05:17:19.298Z,2.22
2023-05-19T05:19:53.067Z,2.33
2023-05-19T05:22:27.705Z,2.03
2023-05-19T05:27:36.576Z,2.70
2023-05-19T05:30:11.504Z,2.30
2023-05-19T05:35:32.611Z,2.10
2023-05-19T05:38:06.527Z,2.50
2023-05-19T05:40:41.695Z,2.25
2023-05-19T05:43:15.758Z,2.30
2023-05-19T05:45:54.795Z,2.15
2023-05-19T05:48:28.576Z,1.90
2023-05-19T05:51:02.398Z,2.28
2023-05-19T05:53:43.990Z,2.53
2023-05-19T05:56:21.031Z,2.60
2023-05-19T05:58:58.017Z,2.65
2023-05-19T06:01:33.579Z,3.22
2023-05-19T06:04:08.262Z,2.80
2023-05-19T06:06:41.604Z,2.47
2023-05-19T06:11:51.428Z,2.90
2023-05-19T06:14:25.102Z,2.97
2023-05-19T06:17:17.212Z,2.67
2023-05-19T06:19:50.494Z,3.08
2023-05-19T06:22:23.821Z,2.53
2023-05-19T06:24:57.183Z,2.80
2023-05-19T06:27:34.533Z,2.80
2023-05-19T06:30:09.860Z,2.17
2023-05-19T06:32:53.762Z,2.72
2023-05-19T06:35:27.155Z,2.38
2023-05-19T06:38:00.391Z,2.67
2023-05-19T06:40:34.006Z,1.80
2023-05-19T06:43:08.866Z,2.22
2023-05-19T06:45:59.202Z,1.80
2023-05-19T06:48:32.789Z,2.28
2023-05-19T06:51:06.603Z,2.13
2023-05-19T06:53:40.978Z,2.83
2023-05-19T06:56:16.600Z,2.50
2023-05-19T06:58:51.302Z,1.70
2023-05-19T07:01:27.826Z,2.13
2023-05-19T07:04:02.319Z,2.40
2023-05-19T07:06:36.344Z,2.15
2023-05-19T07:09:09.616Z,2.22
2023-05-19T07:11:44.863Z,2.30
2023-05-19T07:14:20.860Z,2.65
2023-05-19T07:16:54.684Z,2.05
2023-05-19T07:19:28.458Z,2.30
2023-05-19T07:22:01.946Z,2.13
2023-05-19T07:24:35.296Z,2.35
2023-05-19T07:27:08.563Z,2.50
2023-05-19T07:29:43.262Z,2.28
2023-05-19T07:32:16.681Z,2.20
2023-05-19T07:34:49.994Z,2.20
2023-05-19T07:37:23.254Z,2.33
2023-05-19T07:39:56.543Z,2.40
2023-05-19T07:42:29.788Z,2.53
2023-05-19T07:45:04.591Z,2.10
2023-05-19T07:47:38.484Z,2.33
2023-05-19T07:50:11.781Z,2.30
2023-05-19T07:52:45.083Z,2.13
2023-05-19T07:55:19.248Z,2.33
2023-05-19T07:57:52.620Z,2.42
2023-05-19T08:00:27.750Z,2.28
2023-05-19T08:03:01.761Z,1.88
2023-05-19T08:05:36.418Z,2.10
2023-05-19T08:08:09.949Z,2.28
2023-05-19T08:10:43.407Z,2.30
2023-05-19T08:13:16.763Z,2.78
2023-05-19T08:15:51.371Z,2.65
2023-05-19T08:18:24.650Z,3.70
2023-05-19T08:20:57.977Z,2.00
2023-05-19T08:23:31.199Z,2.75
2023-05-19T08:26:04.526Z,2.33
2023-05-19T08:28:37.726Z,2.17
2023-05-19T08:31:12.385Z,2.53
2023-05-19T08:33:46.200Z,2.53
2023-05-19T08:36:19.720Z,2.50
2023-05-19T08:38:53.011Z,2.13
2023-05-19T08:41:26.411Z,2.70
2023-05-19T08:44:00.260Z,2.08
2023-05-19T08:51:50.686Z,2.50
2023-05-19T08:54:31.135Z,2.10
2023-05-19T08:57:05.631Z,2.10
2023-05-19T08:59:39.139Z,2.25
2023-05-19T09:02:15.124Z,2.60
2023-05-19T09:04:49.013Z,2.85
2023-05-19T09:07:25.526Z,2.63
2023-05-19T09:09:59.591Z,2.30
2023-05-19T09:12:32.897Z,2.63
2023-05-19T09:15:08.088Z,3.03
2023-05-19T09:17:44.820Z,2.58
2023-05-19T09:20:18.683Z,2.22
2023-05-19T09:25:26.364Z,2.40
2023-05-19T09:27:59.609Z,2.47
2023-05-19T09:30:34.300Z,2.10
2023-05-19T09:33:10.120Z,2.75
2023-05-19T09:35:48.422Z,2.95
2023-05-19T09:38:21.722Z,2.50
2023-05-19T09:40:57.641Z,2.63
2023-05-19T09:43:33.477Z,2.45
2023-05-19T09:46:08.483Z,2.08
2023-05-19T09:48:43.877Z,2.33
2023-05-19T09:51:17.562Z,2.47
2023-05-19T09:53:51.525Z,2.35
2023-05-19T09:56:26.141Z,2.58
2023-05-19T09:58:59.613Z,4.03
2023-05-19T10:01:36.281Z,5.22
2023-05-19T10:04:11.262Z,6.88
2023-05-19T10:06:46.169Z,6.70
2023-05-19T10:09:19.722Z,6.90
2023-05-19T10:11:54.296Z,7.32
2023-05-19T10:14:29.275Z,5.80
2023-05-19T10:17:02.762Z,6.28
2023-05-19T10:19:38.292Z,6.32
2023-05-19T10:22:11.612Z,6.57
2023-05-19T10:24:44.967Z,5.43
2023-05-19T10:27:19.378Z,5.68
2023-05-19T10:29:54.020Z,5.53
2023-05-19T10:32:30.500Z,5.43
2023-05-19T10:35:38.802Z,4.97
2023-05-19T10:38:20.657Z,5.15
2023-05-19T10:41:02.151Z,4.75
2023-05-19T10:43:50.450Z,6.00
2023-05-19T10:46:25.937Z,5.25
2023-05-19T10:48:59.449Z,4.65
2023-05-19T10:51:36.112Z,5.20
2023-05-19T10:54:12.065Z,5.07
2023-05-19T10:56:47.573Z,5.50
2023-05-19T10:59:33.260Z,4.22
2023-05-19T11:02:07.127Z,4.30
2023-05-19T11:04:49.585Z,4.82
2023-05-19T11:07:26.553Z,4.93
2023-05-19T11:09:59.896Z,4.88
2023-05-19T11:12:41.797Z,4.88
2023-05-19T11:15:16.035Z,4.80
2023-05-19T11:17:50.355Z,3.83
2023-05-19T11:20:24.856Z,4.30
2023-05-19T11:23:09.906Z,4.78
2023-05-19T11:25:48.175Z,4.80
2023-05-19T11:28:25.852Z,4.50
2023-05-19T11:31:00.157Z,4.50
2023-05-19T11:33:34.192Z,5.70
2023-05-19T11:36:07.883Z,5.20
2023-05-19T11:38:43.690Z,5.03
2023-05-19T11:41:18.894Z,4.55
2023-05-19T11:43:54.249Z,4.35
2023-05-19T11:46:27.624Z,5.07
2023-05-19T11:49:02.326Z,5.03
2023-05-19T11:51:35.669Z,4.63
2023-05-19T11:56:44.631Z,4.10
2023-05-19T11:59:18.095Z,4.55
2023-05-19T12:01:52.534Z,4.90
2023-05-19T12:04:25.770Z,5.70
2023-05-19T12:06:59.202Z,5.05
2023-05-19T12:09:33.972Z,4.35
2023-05-19T12:12:07.553Z,4.80
2023-05-19T12:14:41.276Z,5.13
2023-05-19T12:17:15.703Z,5.05
2023-05-19T12:19:50.085Z,4.28
2023-05-19T12:22:23.597Z,3.83
2023-05-19T12:24:58.639Z,4.75
2023-05-19T12:27:33.040Z,3.78
2023-05-19T12:30:09.755Z,4.57
2023-05-19T12:32:44.277Z,4.05
2023-05-19T12:35:17.854Z,4.90
2023-05-19T12:37:51.458Z,4.22
2023-05-19T12:40:26.664Z,4.72
2023-05-19T12:43:00.127Z,4.78
2023-05-19T12:45:36.192Z,5.28
2023-05-19T12:48:15.895Z,4.75
2023-05-19T12:50:49.656Z,4.13
2023-05-19T12:53:23.093Z,4.22
2023-05-19T12:55:57.789Z,4.53
2023-05-19T12:58:34.874Z,5.22
2023-05-19T13:01:09.235Z,4.07
2023-05-19T13:03:43.018Z,4.80
2023-05-19T13:08:49.662Z,5.03
2023-05-19T13:11:24.307Z,5.00
2023-05-19T13:13:57.684Z,5.10
2023-05-19T13:16:30.929Z,4.60
2023-05-19T13:19:06.249Z,4.70
2023-05-19T13:21:39.756Z,5.90
2023-05-19T13:24:12.997Z,4.45
2023-05-19T13:26:48.219Z,4.30
2023-05-19T13:29:21.544Z,4.03
2023-05-19T13:32:00.523Z,4.25
2023-05-19T13:34:34.636Z,4.32
2023-05-19T13:37:10.048Z,4.03
2023-05-19T13:39:43.423Z,4.60
2023-05-19T13:42:18.464Z,4.85
2023-05-19T13:44:55.037Z,4.32
2023-05-19T13:47:28.593Z,4.78
2023-05-19T13:50:02.321Z,4.97
2023-05-19T13:52:35.705Z,4.47
2023-05-19T13:55:10.068Z,4.57
2023-05-19T13:57:44.927Z,4.32
2023-05-19T14:00:19.435Z,4.72
2023-05-19T14:02:52.860Z,4.45
2023-05-19T14:05:28.369Z,5.53
2023-05-19T14:08:03.677Z,4.93
2023-05-19T14:10:37.008Z,4.45
2023-05-19T14:13:31.005Z,4.50
2023-05-19T14:16:06.769Z,5.53
2023-05-19T14:18:40.124Z,5.25
2023-05-19T14:21:13.424Z,5.00
2023-05-19T14:23:46.707Z,4.55
2023-05-19T14:26:22.012Z,4.68
2023-05-19T14:28:57.900Z,4.15
2023-05-19T14:31:31.220Z,4.10
2023-05-19T14:34:05.201Z,4.20
2023-05-19T14:39:11.968Z,3.95
2023-05-19T14:41:45.306Z,4.70
2023-05-19T14:44:20.106Z,4.03
2023-05-19T14:46:53.490Z,4.05
2023-05-19T14:49:26.830Z,4.13
2023-05-19T14:52:00.162Z,4.05
2023-05-19T14:54:33.903Z,3.95
2023-05-19T14:59:42.930Z,3.60
2023-05-19T15:02:16.273Z,4.18
2023-05-19T15:04:49.721Z,3.58
2023-05-19T15:07:24.627Z,3.40
2023-05-19T15:09:57.975Z,3.60
2023-05-19T15:12:31.531Z,3.38
2023-05-19T15:15:07.641Z,3.13
2023-05-19T15:17:41.276Z,3.25
2023-05-19T15:20:14.644Z,3.95
2023-05-19T15:22:48.111Z,4.22
2023-05-19T15:25:21.458Z,3.78
2023-05-19T15:27:54.736Z,4.03
2023-05-19T15:30:29.406Z,4.50
2023-05-19T15:33:02.824Z,4.53
2023-05-19T15:35:36.261Z,4.28
2023-05-19T15:38:09.572Z,4.57
2023-05-19T15:40:43.627Z,4.55
2023-05-19T15:43:17.525Z,4.30
2023-05-19T15:45:55.010Z,3.90
2023-05-19T15:48:29.166Z,4.40
2023-05-19T15:51:02.534Z,4.45
2023-05-19T15:53:36.422Z,4.60
2023-05-19T15:56:09.727Z,3.78
2023-05-19T15:58:43.507Z,3.80
2023-05-19T16:03:52.050Z,3.85
2023-05-19T16:06:27.600Z,3.75
2023-05-19T16:09:00.865Z,3.47
2023-05-19T16:11:34.326Z,3.67
2023-05-19T16:14:07.649Z,3.63
2023-05-19T16:16:42.476Z,3.47
2023-05-19T16:19:15.904Z,4.32
2023-05-19T16:21:49.225Z,3.83
2023-05-19T16:24:22.549Z,3.78
2023-05-19T16:26:56.249Z,3.70
2023-05-19T16:29:29.491Z,3.88
2023-05-19T16:32:06.092Z,3.30
2023-05-19T16:34:39.402Z,3.95
2023-05-19T16:37:12.678Z,3.63
2023-05-19T16:39:48.357Z,3.20
2023-05-19T16:42:21.747Z,3.55
2023-05-19T16:44:55.279Z,3.28
2023-05-19T16:47:37.386Z,3.42
2023-05-19T16:50:12.925Z,3.45
2023-05-19T16:52:46.571Z,3.22
2023-05-19T16:55:20.315Z,4.43
2023-05-19T16:57:53.689Z,4.10
2023-05-19T17:00:28.849Z,3.40
2023-05-19T17:03:04.684Z,4.00
2023-05-19T17:05:39.101Z,3.83
2023-05-19T17:08:13.069Z,3.80
2023-05-19T17:10:46.378Z,4.10
2023-05-19T17:13:19.634Z,3.72
2023-05-19T17:15:53.570Z,3.97
2023-05-19T17:18:28.308Z,3.40
2023-05-19T17:21:04.052Z,3.78
2023-05-19T17:23:37.905Z,4.05
2023-05-19T17:28:44.487Z,3.33
2023-05-19T17:31:17.717Z,3.35
2023-05-19T17:33:52.375Z,3.75
2023-05-19T17:36:26.309Z,4.05
2023-05-19T17:41:33.240Z,3.95
2023-05-19T17:44:07.262Z,3.05
2023-05-19T17:46:40.699Z,3.38
2023-05-19T17:49:15.430Z,3.47
2023-05-19T17:51:48.898Z,3.78
2023-05-19T17:54:23.216Z,4.05
2023-05-19T17:56:59.443Z,3.40
2023-05-19T17:59:33.542Z,3.97
2023-05-19T18:02:08.411Z,4.40
2023-05-19T18:04:44.560Z,3.55
2023-05-19T18:07:19.394Z,3.83
2023-05-19T18:09:53.274Z,3.88
2023-05-19T18:14:59.804Z,3.92
2023-05-19T18:17:33.154Z,4.57
2023-05-19T18:20:09.341Z,4.22
2023-05-19T18:22:42.677Z,4.43
2023-05-19T18:25:17.006Z,4.32
2023-05-19T18:27:50.540Z,4.47
2023-05-19T18:30:24.209Z,4.10
2023-05-19T18:32:57.737Z,3.67
2023-05-19T18:35:32.419Z,4.10
2023-05-19T18:38:05.877Z,3.88
2023-05-19T18:40:39.603Z,3.90
2023-05-19T18:45:48.173Z,3.83
2023-05-19T18:48:22.564Z,4.95
2023-05-19T18:50:57.397Z,4.68
2023-05-19T18:53:34.034Z,4.43
2023-05-19T18:56:08.421Z,4.63
2023-05-19T18:58:41.832Z,4.03
2023-05-19T19:01:16.374Z,4.30
2023-05-19T19:03:49.998Z,4.10
2023-05-19T19:06:25.022Z,4.25
2023-05-19T19:08:58.343Z,4.20
2023-05-19T19:11:31.932Z,4.05
2023-05-19T19:14:05.233Z,4.68
2023-05-19T19:16:38.870Z,3.97
2023-05-19T19:19:12.219Z,4.05
2023-05-19T19:21:46.852Z,4.50
2023-05-19T19:24:20.059Z,4.53
2023-05-19T19:26:53.341Z,4.18
2023-05-19T19:29:26.695Z,4.50
2023-05-19T19:31:59.995Z,3.42
2023-05-19T19:34:33.261Z,3.72
2023-05-19T19:37:07.843Z,3.80
2023-05-19T19:39:41.138Z,3.97
2023-05-19T19:42:14.458Z,3.83
2023-05-19T19:44:47.702Z,4.53
2023-05-19T19:47:20.998Z,4.30
2023-05-19T19:49:54.304Z,4.00
2023-05-19T19:52:28.944Z,4.00
2023-05-19T19:55:02.248Z,4.45
2023-05-19T19:57:35.700Z,4.63
2023-05-19T20:00:10.272Z,4.45
2023-05-19T20:03:03.027Z,4.65
2023-05-19T20:05:39.501Z,3.97
2023-05-19T20:08:15.393Z,5.07
2023-05-19T20:10:49.336Z,4.93
2023-05-19T20:13:22.574Z,4.47
2023-05-19T20:15:55.804Z,5.10
2023-05-19T20:18:29.892Z,5.43
2023-05-19T20:21:03.343Z,7.38
2023-05-19T20:23:38.847Z,4.57
2023-05-19T20:26:13.447Z,5.10
2023-05-19T20:28:47.052Z,5.05
2023-05-19T20:31:21.525Z,6.00
2023-05-19T20:33:54.804Z,5.45
2023-05-19T20:36:28.100Z,5.53
2023-05-19T20:39:03.722Z,5.00
2023-05-19T20:41:37.345Z,5.70
2023-05-19T20:44:11.771Z,5.30
2023-05-19T20:46:45.057Z,4.75
2023-05-19T20:49:18.426Z,4.80
2023-05-19T20:51:51.679Z,4.60
2023-05-19T20:54:26.504Z,4.85
2023-05-19T20:56:59.829Z,5.00
2023-05-19T20:59:33.119Z,4.18
2023-05-19T21:02:07.620Z,4.45
2023-05-19T21:04:41.072Z,4.50
2023-05-19T21:07:14.429Z,4.53
2023-05-19T21:09:51.392Z,5.20
2023-05-19T21:12:25.293Z,4.15
2023-05-19T21:14:58.596Z,4.65
2023-05-19T21:17:31.980Z,4.45
2023-05-19T21:20:06.492Z,5.20
2023-05-19T21:22:40.893Z,5.78
2023-05-19T21:25:17.031Z,6.10
2023-05-19T21:27:51.030Z,7.05
2023-05-19T21:30:24.290Z,5.35
2023-05-19T21:32:57.567Z,6.38
2023-05-19T21:35:31.020Z,5.72
2023-05-19T21:38:15.711Z,5.15
2023-05-19T21:40:57.757Z,4.50
2023-05-19T21:43:31.111Z,4.57
2023-05-19T21:46:04.511Z,4.32
2023-05-19T21:48:37.857Z,4.97
2023-05-19T21:51:11.153Z,5.13
2023-05-19T21:53:44.422Z,4.03
2023-05-19T21:56:18.999Z,4.95
2023-05-19T21:58:52.282Z,5.00
2023-05-19T22:01:25.849Z,5.63
2023-05-19T22:03:59.209Z,4.63
2023-05-19T22:06:33.606Z,4.82
2023-05-19T22:09:06.888Z,4.47
2023-05-19T22:11:41.780Z,4.50
2023-05-19T22:14:15.444Z,5.15
2023-05-19T22:16:48.725Z,4.60
2023-05-19T22:19:22.007Z,4.72
2023-05-19T22:22:01.775Z,4.68
2023-05-19T22:24:43.485Z,4.35
2023-05-19T22:27:18.085Z,4.70
2023-05-19T22:29:51.546Z,4.57
2023-05-19T22:32:24.813Z,4.75
2023-05-19T22:34:58.209Z,4.20
2023-05-19T22:37:31.600Z,4.82
2023-05-19T22:40:05.378Z,4.85
2023-05-19T22:45:13.694Z,4.75
2023-05-19T22:47:48.355Z,4.95
2023-05-19T22:50:21.838Z,4.72
2023-05-19T22:52:55.115Z,4.90
2023-05-19T22:55:28.418Z,4.38
2023-05-19T22:58:03.124Z,4.68
2023-05-19T23:00:36.428Z,4.70
2023-05-19T23:03:09.728Z,3.85
2023-05-19T23:05:43.794Z,4.35
2023-05-19T23:08:17.057Z,4.10
2023-05-19T23:10:51.038Z,4.10
2023-05-19T23:13:25.690Z,4.40
2023-05-19T23:15:58.971Z,4.80
2023-05-19T23:18:32.168Z,4.07
2023-05-19T23:21:05.414Z,4.35
2023-05-19T23:23:38.656Z,4.90
2023-05-19T23:26:13.373Z,4.80
2023-05-19T23:28:48.039Z,4.75
2023-05-19T23:31:21.271Z,4.20
2023-05-19T23:33:55.103Z,4.32
2023-05-19T23:36:28.483Z,4.45
2023-05-19T23:39:01.853Z,4.93
2023-05-19T23:41:35.156Z,4.50
2023-05-19T23:44:09.882Z,4.28
2023-05-19T23:46:43.246Z,4.60
2023-05-19T23:49:16.521Z,3.88
2023-05-19T23:51:49.804Z,4.32
2023-05-19T23:54:23.065Z,5.10
2023-05-19T23:56:56.397Z,4.25
2023-05-19T23:59:30.981Z,4.07
